Terminal Aerodrome Forecast
Issued by NWS Wakefield, VA

Home | Current Version | Previous Version | Text Only | Print | Product List | Glossary On
Versions: 1 2 3 4 5 6 7 8 9 10 11 12 13 14 15
000
FTUS41 KAKQ 202100 AAA
TAFORF
TAF AMD
KORF 202112Z 2021/2118 07013KT P6SM SCT015 OVC045
      TEMPO 2021/2024 -RA SCT008 BKN015
     FM210000 08008KT P6SM BKN025 OVC040
     FM210300 08004KT P6SM -RA BKN012 OVC030
     FM211200 05005KT 6SM BR OVC010=

USA.gov is the U.S. government's official web portal to all federal, state and local government web resources and services.